createdAt,value
2022-11-15T00:00:48.483Z,10.07
2022-11-15T00:03:19.705Z,10.15
2022-11-15T00:08:12.854Z,9.57
2022-11-15T00:10:39.365Z,9.52
2022-11-15T00:13:10.947Z,10.43
2022-11-15T00:15:38.598Z,9.32
2022-11-15T00:18:06.098Z,9.27
2022-11-15T00:20:34.902Z,8.20
2022-11-15T00:23:01.213Z,8.20
2022-11-15T00:25:28.128Z,9.20
2022-11-15T00:27:58.779Z,8.65
2022-11-15T00:30:25.920Z,8.07
2022-11-15T00:32:52.314Z,8.77
2022-11-15T00:35:19.622Z,9.40
2022-11-15T00:37:47.376Z,9.50
2022-11-15T00:40:14.720Z,9.00
2022-11-15T00:42:41.746Z,8.82
2022-11-15T00:45:08.809Z,8.65
2022-11-15T00:47:35.173Z,7.47
2022-11-15T00:50:01.537Z,8.07
2022-11-15T00:52:27.855Z,9.23
2022-11-15T00:54:54.196Z,9.25
2022-11-15T00:57:20.501Z,9.10
2022-11-15T00:59:46.834Z,9.82
2022-11-15T01:02:13.174Z,9.50
2022-11-15T01:04:40.110Z,8.70
2022-11-15T01:07:06.456Z,7.25
2022-11-15T01:09:32.815Z,9.50
2022-11-15T01:11:59.125Z,9.30
2022-11-15T01:14:25.878Z,9.52
2022-11-15T01:16:52.215Z,8.63
2022-11-15T01:19:18.596Z,10.00
2022-11-15T01:21:44.883Z,10.25
2022-11-15T01:24:14.307Z,9.63
2022-11-15T01:26:40.816Z,9.55
2022-11-15T01:29:07.158Z,10.32
2022-11-15T01:31:33.515Z,9.27
2022-11-15T01:33:59.800Z,10.18
2022-11-15T01:36:26.126Z,9.95
2022-11-15T01:38:57.690Z,10.20
2022-11-15T01:41:27.531Z,10.07
2022-11-15T01:43:57.254Z,9.82
2022-11-15T01:46:26.244Z,10.45
2022-11-15T01:48:55.195Z,10.88
2022-11-15T01:51:24.896Z,11.48
2022-11-15T01:53:56.079Z,9.77
2022-11-15T01:58:52.811Z,10.05
2022-11-15T02:01:20.049Z,9.48
2022-11-15T02:04:00.261Z,9.80
2022-11-15T02:06:26.568Z,9.57
2022-11-15T02:08:53.097Z,9.88
2022-11-15T02:11:19.814Z,10.35
2022-11-15T02:13:46.829Z,9.68
2022-11-15T02:16:43.753Z,10.10
2022-11-15T02:19:37.219Z,10.07
2022-11-15T02:22:34.994Z,9.73
2022-11-15T02:25:23.289Z,9.68
2022-11-15T02:28:31.890Z,9.70
2022-11-15T02:31:11.876Z,9.48
2022-11-15T02:34:15.742Z,8.93
2022-11-15T02:36:57.914Z,9.57
2022-11-15T02:39:49.987Z,9.85
2022-11-15T02:42:41.685Z,8.45
2022-11-15T02:45:11.362Z,10.55
2022-11-15T02:47:44.872Z,9.68
2022-11-15T02:50:15.399Z,9.30
2022-11-15T02:52:41.815Z,10.27
2022-11-15T02:55:41.942Z,8.82
2022-11-15T02:58:27.026Z,9.65
2022-11-15T03:01:05.521Z,9.52
2022-11-15T03:03:35.007Z,9.65
2022-11-15T03:06:22.010Z,9.20
2022-11-15T03:09:06.057Z,9.20
2022-11-15T03:11:37.774Z,8.75
2022-11-15T03:14:10.023Z,10.35
2022-11-15T03:16:55.067Z,9.23
2022-11-15T03:19:33.679Z,8.73
2022-11-15T03:22:03.813Z,10.00
2022-11-15T03:24:32.753Z,8.82
2022-11-15T03:27:02.347Z,9.90
2022-11-15T03:29:33.935Z,8.38
2022-11-15T03:32:07.206Z,9.27
2022-11-15T03:34:50.452Z,9.90
2022-11-15T03:37:18.664Z,9.68
2022-11-15T03:39:45.219Z,9.75
2022-11-15T03:42:31.453Z,9.88
2022-11-15T03:45:18.765Z,9.95
2022-11-15T03:48:13.623Z,9.30
2022-11-15T03:50:41.494Z,8.98
2022-11-15T03:53:09.029Z,10.50
2022-11-15T03:55:35.404Z,10.02
2022-11-15T03:58:02.682Z,10.13
2022-11-15T04:00:29.558Z,10.20
2022-11-15T04:02:56.154Z,9.55
2022-11-15T04:05:22.470Z,9.00
2022-11-15T04:07:48.758Z,9.93
2022-11-15T04:10:15.708Z,9.80
2022-11-15T04:12:50.058Z,9.90
2022-11-15T04:15:19.630Z,10.82
2022-11-15T04:17:50.355Z,9.80
2022-11-15T04:20:36.511Z,10.13
2022-11-15T04:23:38.932Z,10.50
2022-11-15T04:26:15.379Z,10.93
2022-11-15T04:29:01.667Z,10.07
2022-11-15T04:31:28.790Z,10.88
2022-11-15T04:33:55.550Z,9.80
2022-11-15T04:36:41.164Z,10.07
2022-11-15T04:39:07.671Z,10.23
2022-11-15T04:41:34.221Z,10.20
2022-11-15T04:44:00.565Z,10.43
2022-11-15T04:46:27.122Z,9.95
2022-11-15T04:48:58.274Z,9.70
2022-11-15T04:51:25.109Z,9.77
2022-11-15T04:53:51.399Z,10.13
2022-11-15T04:56:17.696Z,9.45
2022-11-15T04:58:44.020Z,9.38
2022-11-15T05:01:15.821Z,10.25
2022-11-15T05:04:01.837Z,10.60
2022-11-15T05:06:28.336Z,10.32
2022-11-15T05:08:54.997Z,10.32
2022-11-15T05:11:21.760Z,10.15
2022-11-15T05:13:48.704Z,10.40
2022-11-15T05:16:15.321Z,9.77
2022-11-15T05:18:41.706Z,10.23
2022-11-15T05:21:14.945Z,9.95
2022-11-15T05:23:42.006Z,9.80
2022-11-15T05:26:09.685Z,9.68
2022-11-15T05:28:37.265Z,8.95
2022-11-15T05:31:13.294Z,9.25
2022-11-15T05:33:40.814Z,8.98
2022-11-15T05:36:21.145Z,9.45
2022-11-15T05:38:49.299Z,8.98
2022-11-15T05:41:19.886Z,10.10
2022-11-15T05:43:49.916Z,9.40
2022-11-15T05:46:17.135Z,8.98
2022-11-15T05:48:47.809Z,9.25
2022-11-15T05:51:16.316Z,9.68
2022-11-15T05:53:42.752Z,9.65
2022-11-15T05:56:10.058Z,9.15
2022-11-15T05:58:37.646Z,9.02
2022-11-15T06:01:04.009Z,8.93
2022-11-15T06:03:30.753Z,9.25
2022-11-15T06:05:57.745Z,9.10
2022-11-15T06:08:24.053Z,9.75
2022-11-15T06:10:50.349Z,9.20
2022-11-15T06:13:16.750Z,9.95
2022-11-15T06:15:43.078Z,8.50
2022-11-15T06:18:09.367Z,9.43
2022-11-15T06:20:35.699Z,8.57
2022-11-15T06:23:04.518Z,9.45
2022-11-15T06:25:32.229Z,8.82
2022-11-15T06:28:00.053Z,8.98
2022-11-15T06:30:27.457Z,8.95
2022-11-15T06:33:01.414Z,9.32
2022-11-15T06:35:27.970Z,8.88
2022-11-15T06:37:54.288Z,9.98
2022-11-15T06:40:20.591Z,9.75
2022-11-15T06:42:47.045Z,8.60
2022-11-15T06:45:13.628Z,9.10
2022-11-15T06:47:47.667Z,10.10
2022-11-15T06:50:14.348Z,9.38
2022-11-15T06:52:40.666Z,9.70
2022-11-15T06:55:07.788Z,10.45
2022-11-15T06:57:34.153Z,9.88
2022-11-15T07:00:00.498Z,9.23
2022-11-15T07:02:27.079Z,9.35
2022-11-15T07:04:53.418Z,9.68
2022-11-15T07:07:19.863Z,10.63
2022-11-15T07:09:46.218Z,9.93
2022-11-15T07:12:12.597Z,9.80
2022-11-15T07:14:38.901Z,9.45
2022-11-15T07:17:06.158Z,10.27
2022-11-15T07:19:33.356Z,9.43
2022-11-15T07:22:02.637Z,10.02
2022-11-15T07:24:28.952Z,10.73
2022-11-15T07:26:55.356Z,10.45
2022-11-15T07:29:21.837Z,10.95
2022-11-15T07:31:48.913Z,11.32
2022-11-15T07:34:15.211Z,10.98
2022-11-15T07:36:41.519Z,11.82
2022-11-15T07:39:07.939Z,12.25
2022-11-15T07:41:34.461Z,12.25
2022-11-15T07:44:01.228Z,9.95
2022-11-15T07:46:27.559Z,10.38
2022-11-15T07:48:53.898Z,9.18
2022-11-15T07:51:20.962Z,9.50
2022-11-15T07:53:47.255Z,9.10
2022-11-15T07:56:14.130Z,8.70
2022-11-15T07:58:40.802Z,7.07
2022-11-15T08:01:09.000Z,7.35
2022-11-15T08:03:36.157Z,6.20
2022-11-15T08:06:03.322Z,5.78
2022-11-15T08:08:29.718Z,6.00
2022-11-15T08:10:58.554Z,4.80
2022-11-15T08:13:25.002Z,5.07
2022-11-15T08:15:56.396Z,5.40
2022-11-15T08:18:24.180Z,6.00
2022-11-15T08:20:50.510Z,5.97
2022-11-15T08:23:16.940Z,5.30
2022-11-15T08:25:43.396Z,5.47
2022-11-15T08:28:11.237Z,4.30
2022-11-15T08:30:42.359Z,4.60
2022-11-15T08:35:37.145Z,5.43
2022-11-15T08:38:03.997Z,5.45
2022-11-15T08:40:30.313Z,5.30
2022-11-15T08:42:56.630Z,5.78
2022-11-15T08:45:22.981Z,5.13
2022-11-15T08:47:53.941Z,4.95
2022-11-15T08:50:20.885Z,5.18
2022-11-15T08:52:48.947Z,5.03
2022-11-15T08:55:17.544Z,5.15
2022-11-15T08:57:44.318Z,4.47
2022-11-15T09:00:12.335Z,4.50
2022-11-15T09:02:39.870Z,4.45
2022-11-15T09:05:07.074Z,4.15
2022-11-15T09:07:33.492Z,4.32
2022-11-15T09:09:59.887Z,5.00
2022-11-15T09:12:26.664Z,4.63
2022-11-15T09:14:53.369Z,4.47
2022-11-15T09:17:24.415Z,4.28
2022-11-15T09:19:51.387Z,4.35
2022-11-15T09:22:17.708Z,4.57
2022-11-15T09:24:44.124Z,4.72
2022-11-15T09:27:10.480Z,4.40
2022-11-15T09:29:37.204Z,3.85
2022-11-15T09:32:03.623Z,4.85
2022-11-15T09:34:30.015Z,4.20
2022-11-15T09:36:56.473Z,3.97
2022-11-15T09:39:22.837Z,6.28
2022-11-15T09:41:58.937Z,4.55
2022-11-15T09:44:49.276Z,4.38
2022-11-15T09:47:53.184Z,4.13
2022-11-15T09:50:47.976Z,3.88
2022-11-15T09:53:47.890Z,3.58
2022-11-15T09:56:16.187Z,3.38
2022-11-15T09:58:51.790Z,3.25
2022-11-15T10:01:35.071Z,4.10
2022-11-15T10:04:01.863Z,4.13
2022-11-15T10:06:29.311Z,3.65
2022-11-15T10:09:05.456Z,3.72
2022-11-15T10:11:38.163Z,3.30
2022-11-15T10:14:25.940Z,2.70
2022-11-15T10:17:14.166Z,2.72
2022-11-15T10:19:50.248Z,2.30
2022-11-15T10:22:26.910Z,2.30
2022-11-15T10:25:14.737Z,2.67
2022-11-15T10:27:42.700Z,2.60
2022-11-15T10:30:15.906Z,2.08
2022-11-15T10:32:44.223Z,2.20
2022-11-15T10:35:28.968Z,1.50
2022-11-15T10:38:10.250Z,1.85
2022-11-15T10:40:37.820Z,1.92
2022-11-15T10:43:10.371Z,1.75
2022-11-15T10:45:37.733Z,1.65
2022-11-15T10:48:13.226Z,1.60
2022-11-15T10:50:41.769Z,1.75
2022-11-15T10:53:25.237Z,1.55
2022-11-15T10:55:56.105Z,1.70
2022-11-15T10:58:42.044Z,1.50
2022-11-15T11:01:17.844Z,1.30
2022-11-15T11:03:58.026Z,1.30
2022-11-15T11:06:24.332Z,1.50
2022-11-15T11:08:57.969Z,1.30
2022-11-15T11:11:25.011Z,1.38
2022-11-15T11:13:51.369Z,1.20
2022-11-15T11:16:43.409Z,1.70
2022-11-15T11:19:35.648Z,1.52
2022-11-15T11:22:35.206Z,1.10
2022-11-15T11:25:26.075Z,0.88
2022-11-15T11:28:16.838Z,0.80
2022-11-15T11:31:01.359Z,0.95
2022-11-15T11:33:34.537Z,0.70
2022-11-15T11:36:48.985Z,0.60
2022-11-15T11:39:29.577Z,0.50
2022-11-15T11:42:20.157Z,0.52
2022-11-15T11:45:02.157Z,0.43
2022-11-15T11:47:37.873Z,0.70
2022-11-15T11:50:20.768Z,0.63
2022-11-15T11:53:13.260Z,0.68
2022-11-15T11:55:46.601Z,0.60
2022-11-15T11:58:24.812Z,0.75
2022-11-15T12:00:53.953Z,0.60
2022-11-15T12:03:30.009Z,0.63
2022-11-15T12:06:12.399Z,0.60
2022-11-15T12:08:41.953Z,0.60
2022-11-15T12:11:15.789Z,0.70
2022-11-15T12:13:43.710Z,0.75
2022-11-15T12:16:18.276Z,0.68
2022-11-15T12:18:50.499Z,0.68
2022-11-15T12:21:40.394Z,0.77
2022-11-15T12:24:21.399Z,0.57
2022-11-15T12:27:02.615Z,0.40
2022-11-15T12:32:00.846Z,0.70
2022-11-15T12:34:29.897Z,0.40
2022-11-15T12:36:56.680Z,0.55
2022-11-15T12:40:04.178Z,0.50
2022-11-15T12:42:57.916Z,2.40
2022-11-15T12:45:37.587Z,0.50
2022-11-15T12:48:16.203Z,1.40
2022-11-15T12:51:08.941Z,0.60
2022-11-15T12:53:35.873Z,0.30
2022-11-15T12:56:05.193Z,0.60
2022-11-15T12:58:52.725Z,0.40
2022-11-15T13:01:31.463Z,0.50
2022-11-15T13:04:19.424Z,0.52
2022-11-15T13:06:54.064Z,0.70
2022-11-15T13:09:32.584Z,0.60
2022-11-15T13:12:04.278Z,0.43
2022-11-15T13:14:50.798Z,0.43
2022-11-15T13:17:19.930Z,0.40
2022-11-15T13:19:57.978Z,0.40
2022-11-15T13:22:42.927Z,0.50
2022-11-15T13:25:20.065Z,0.47
2022-11-15T13:27:49.252Z,0.50
2022-11-15T13:30:33.013Z,0.80
2022-11-15T13:33:08.453Z,0.77
2022-11-15T13:35:40.642Z,0.60
2022-11-15T13:38:07.573Z,0.40
2022-11-15T13:40:38.230Z,0.60
2022-11-15T13:43:23.750Z,0.60
2022-11-15T13:46:17.594Z,1.25
2022-11-15T13:48:45.917Z,0.57
2022-11-15T13:51:18.193Z,0.57
2022-11-15T13:53:49.766Z,0.57
2022-11-15T13:56:19.693Z,0.47
2022-11-15T13:58:46.225Z,0.57
2022-11-15T14:01:20.419Z,0.73
2022-11-15T14:03:54.352Z,0.40
2022-11-15T14:06:23.264Z,0.40
2022-11-15T14:09:09.876Z,0.52
2022-11-15T14:11:36.393Z,0.50
2022-11-15T14:14:02.656Z,0.65
2022-11-15T14:16:44.740Z,0.65
2022-11-15T14:19:14.375Z,0.45
2022-11-15T14:22:35.822Z,0.50
2022-11-15T14:25:07.466Z,0.80
2022-11-15T14:27:34.588Z,0.40
2022-11-15T14:30:01.535Z,0.63
2022-11-15T14:32:43.652Z,0.60
2022-11-15T14:35:15.715Z,0.90
2022-11-15T14:37:42.007Z,0.60
2022-11-15T14:40:13.102Z,0.80
2022-11-15T14:45:13.810Z,0.50
2022-11-15T14:47:40.451Z,0.50
2022-11-15T14:50:07.531Z,0.60
2022-11-15T14:52:36.022Z,0.47
2022-11-15T14:55:04.954Z,1.95
2022-11-15T14:57:31.795Z,0.70
2022-11-15T14:59:58.095Z,0.95
2022-11-15T15:02:26.100Z,0.70
2022-11-15T15:04:52.920Z,0.60
2022-11-15T15:07:19.797Z,0.57
2022-11-15T15:09:46.933Z,0.75
2022-11-15T15:12:25.016Z,0.70
2022-11-15T15:14:51.575Z,0.77
2022-11-15T15:17:18.703Z,0.90
2022-11-15T15:19:45.207Z,0.70
2022-11-15T15:22:23.377Z,0.98
2022-11-15T15:24:49.758Z,0.68
2022-11-15T15:27:16.118Z,0.85
2022-11-15T15:29:42.473Z,0.63
2022-11-15T15:32:09.942Z,1.00
2022-11-15T15:34:36.288Z,0.40
2022-11-15T15:37:24.952Z,0.77
2022-11-15T15:39:56.461Z,0.90
2022-11-15T15:42:23.933Z,0.95
2022-11-15T15:44:51.355Z,0.70
2022-11-15T15:47:23.692Z,0.65
2022-11-15T15:49:51.132Z,0.90
2022-11-15T15:52:18.221Z,0.73
2022-11-15T15:54:44.550Z,0.70
2022-11-15T15:57:13.932Z,0.70
2022-11-15T15:59:40.387Z,0.95
2022-11-15T16:02:07.066Z,0.77
2022-11-15T16:04:33.345Z,0.60
2022-11-15T16:07:00.890Z,0.80
2022-11-15T16:09:46.522Z,0.90
2022-11-15T16:12:12.897Z,0.60
2022-11-15T16:14:39.246Z,0.50
2022-11-15T16:17:06.086Z,0.70
2022-11-15T16:19:32.406Z,1.08
2022-11-15T16:21:58.698Z,0.80
2022-11-15T16:24:25.034Z,0.90
2022-11-15T16:26:52.335Z,1.17
2022-11-15T16:29:18.679Z,0.80
2022-11-15T16:31:45.034Z,1.00
2022-11-15T16:34:11.359Z,0.68
2022-11-15T16:36:37.705Z,0.65
2022-11-15T16:39:04.947Z,1.20
2022-11-15T16:41:31.631Z,1.13
2022-11-15T16:43:57.948Z,0.98
2022-11-15T16:46:27.906Z,0.90
2022-11-15T16:48:54.585Z,1.00
2022-11-15T16:51:21.501Z,1.55
2022-11-15T16:53:49.074Z,1.30
2022-11-15T16:56:26.972Z,1.40
2022-11-15T16:59:01.065Z,0.82
2022-11-15T17:01:31.506Z,1.10
2022-11-15T17:03:58.731Z,1.52
2022-11-15T17:06:26.585Z,1.38
2022-11-15T17:08:52.927Z,1.50
2022-11-15T17:11:21.646Z,1.38
2022-11-15T17:13:49.365Z,1.27
2022-11-15T17:16:17.902Z,1.65
2022-11-15T17:18:47.098Z,1.30
2022-11-15T17:21:15.695Z,1.83
2022-11-15T17:23:42.877Z,1.60
2022-11-15T17:26:29.013Z,1.60
2022-11-15T17:28:57.601Z,1.42
2022-11-15T17:31:25.207Z,1.90
2022-11-15T17:33:51.492Z,1.90
2022-11-15T17:36:17.862Z,1.60
2022-11-15T17:38:44.497Z,1.60
2022-11-15T17:41:14.346Z,1.77
2022-11-15T17:43:41.018Z,1.50
2022-11-15T17:46:12.639Z,1.85
2022-11-15T17:48:39.014Z,1.58
2022-11-15T17:51:07.631Z,1.60
2022-11-15T17:53:37.282Z,1.63
2022-11-15T17:56:24.731Z,1.52
2022-11-15T17:58:56.665Z,1.65
2022-11-15T18:01:29.181Z,1.63
2022-11-15T18:03:56.975Z,2.47
2022-11-15T18:06:24.525Z,1.70
2022-11-15T18:08:52.491Z,1.65
2022-11-15T18:11:19.842Z,1.50
2022-11-15T18:13:52.101Z,1.85
2022-11-15T18:16:21.259Z,1.50
2022-11-15T18:18:48.085Z,1.58
2022-11-15T18:21:20.040Z,1.85
2022-11-15T18:23:46.576Z,1.58
2022-11-15T18:26:15.356Z,1.33
2022-11-15T18:28:44.177Z,1.65
2022-11-15T18:31:25.513Z,1.10
2022-11-15T18:33:52.598Z,1.67
2022-11-15T18:36:25.323Z,1.92
2022-11-15T18:39:00.514Z,2.03
2022-11-15T18:41:30.761Z,1.83
2022-11-15T18:44:02.208Z,2.00
2022-11-15T18:46:31.787Z,2.00
2022-11-15T18:49:00.488Z,1.85
2022-11-15T18:51:30.150Z,1.88
2022-11-15T18:53:58.561Z,1.80
2022-11-15T18:56:26.424Z,2.17
2022-11-15T18:58:58.118Z,1.65
2022-11-15T19:01:27.912Z,1.80
2022-11-15T19:03:56.431Z,1.88
2022-11-15T19:06:28.791Z,1.50
2022-11-15T19:08:58.127Z,1.98
2022-11-15T19:11:27.965Z,1.70
2022-11-15T19:13:56.633Z,1.67
2022-11-15T19:16:24.131Z,1.80
2022-11-15T19:18:58.851Z,1.63
2022-11-15T19:21:26.877Z,1.90
2022-11-15T19:23:54.187Z,1.75
2022-11-15T19:26:22.546Z,1.60
2022-11-15T19:28:53.980Z,1.50
2022-11-15T19:31:21.646Z,1.83
2022-11-15T19:33:48.018Z,0.75
2022-11-15T19:36:24.006Z,1.88
2022-11-15T19:38:50.539Z,1.80
2022-11-15T19:41:19.096Z,2.00
2022-11-15T19:43:50.686Z,1.63
2022-11-15T19:46:18.676Z,1.77
2022-11-15T19:48:45.175Z,1.73
2022-11-15T19:51:14.320Z,1.75
2022-11-15T19:53:41.869Z,1.75
2022-11-15T19:56:12.800Z,1.80
2022-11-15T19:58:39.640Z,2.17
2022-11-15T20:01:13.086Z,2.10
2022-11-15T20:03:39.926Z,2.00
2022-11-15T20:06:12.127Z,1.90
2022-11-15T20:08:38.842Z,1.92
2022-11-15T20:11:08.280Z,1.98
2022-11-15T20:13:34.838Z,1.92
2022-11-15T20:16:01.252Z,2.25
2022-11-15T20:18:29.226Z,2.28
2022-11-15T20:20:57.824Z,2.25
2022-11-15T20:23:25.592Z,1.98
2022-11-15T20:25:52.691Z,1.40
2022-11-15T20:28:23.029Z,1.67
2022-11-15T20:30:53.305Z,1.97
2022-11-15T20:33:20.455Z,1.97
2022-11-15T20:35:46.915Z,2.08
2022-11-15T20:38:13.796Z,2.05
2022-11-15T20:40:40.979Z,2.30
2022-11-15T20:43:12.213Z,2.08
2022-11-15T20:45:39.437Z,2.13
2022-11-15T20:48:06.786Z,1.95
2022-11-15T20:50:42.466Z,1.95
2022-11-15T20:53:11.542Z,2.05
2022-11-15T20:55:52.263Z,2.08
2022-11-15T20:58:19.567Z,2.38
2022-11-15T21:00:46.402Z,2.22
2022-11-15T21:03:15.452Z,2.33
2022-11-15T21:05:43.767Z,1.92
2022-11-15T21:08:12.092Z,2.28
2022-11-15T21:10:59.308Z,2.40
2022-11-15T21:13:27.497Z,2.60
2022-11-15T21:15:57.838Z,2.63
2022-11-15T21:18:25.064Z,2.70
2022-11-15T21:20:53.774Z,2.75
2022-11-15T21:23:21.058Z,2.65
2022-11-15T21:25:54.614Z,2.63
2022-11-15T21:28:21.237Z,2.60
2022-11-15T21:30:56.424Z,3.22
2022-11-15T21:33:24.073Z,2.63
2022-11-15T21:35:54.513Z,2.53
2022-11-15T21:38:23.698Z,2.60
2022-11-15T21:40:51.223Z,2.85
2022-11-15T21:43:18.028Z,3.10
2022-11-15T21:46:02.268Z,3.17
2022-11-15T21:48:31.286Z,3.30
2022-11-15T21:51:01.690Z,3.40
2022-11-15T21:53:29.772Z,3.70
2022-11-15T21:55:56.125Z,2.78
2022-11-15T21:58:22.999Z,4.10
2022-11-15T22:01:08.678Z,3.78
2022-11-15T22:03:35.802Z,3.30
2022-11-15T22:06:02.112Z,3.42
2022-11-15T22:08:28.408Z,4.22
2022-11-15T22:10:56.607Z,3.70
2022-11-15T22:13:23.975Z,3.85
2022-11-15T22:15:51.571Z,3.72
2022-11-15T22:18:31.453Z,3.85
2022-11-15T22:21:00.472Z,3.78
2022-11-15T22:23:28.611Z,3.78
2022-11-15T22:25:55.176Z,2.90
2022-11-15T22:28:22.076Z,3.60
2022-11-15T22:30:51.945Z,3.95
2022-11-15T22:33:20.161Z,4.13
2022-11-15T22:35:47.170Z,4.13
2022-11-15T22:38:13.630Z,3.92
2022-11-15T22:40:40.139Z,4.20
2022-11-15T22:43:06.722Z,4.30
2022-11-15T22:45:33.658Z,4.35
2022-11-15T22:48:00.094Z,4.10
2022-11-15T22:50:26.475Z,4.13
2022-11-15T22:52:52.851Z,3.22
2022-11-15T22:55:19.200Z,5.68
2022-11-15T22:57:45.607Z,4.38
2022-11-15T23:00:15.536Z,4.75
2022-11-15T23:02:42.523Z,4.72
2022-11-15T23:05:09.586Z,4.65
2022-11-15T23:07:36.102Z,5.22
2022-11-15T23:10:25.436Z,3.70
2022-11-15T23:13:10.264Z,4.95
2022-11-15T23:15:55.067Z,4.93
2022-11-15T23:18:21.460Z,5.25
2022-11-15T23:20:47.857Z,5.32
2022-11-15T23:23:14.313Z,5.28
2022-11-15T23:25:40.901Z,5.10
2022-11-15T23:28:07.409Z,5.00
2022-11-15T23:30:58.194Z,5.70
2022-11-15T23:33:43.262Z,3.05
2022-11-15T23:36:09.678Z,5.45
2022-11-15T23:38:37.288Z,5.25
2022-11-15T23:41:05.430Z,5.85
2022-11-15T23:43:32.100Z,6.15
2022-11-15T23:46:01.535Z,6.30
2022-11-15T23:48:28.135Z,5.70
2022-11-15T23:50:54.636Z,5.93
2022-11-15T23:53:21.526Z,5.50
2022-11-15T23:56:00.021Z,5.78
2022-11-15T23:58:26.380Z,5.03
